Huvudsida
METAR-TAF:

METAR-TAF

Flygplatser :

Caracas, Venezuela

latitud: 10-36N, longitud: 066-59W, höjd: 43 m

Aktuellt väderrapport

Denna rapport gjordes för 18 minuter sedan, klockan 06:00 UTC
Vind 1 kt från ost
Temperatur 25°C
Fuktighet 89%
Tryck 1010 hPa
Sikt 10 km eller mer
Spridda moln på en höjd av 1600 ft

METAR: SVMI 240600Z 09001KT 9999 SCT016 25/23 Q1010

Tid: 02:18 (06:18 UTC)

Väderprognos

Denna rapport gjordes för 2 timmar och 18 minuter sedan, klockan 04:00 UTC
Prognos gäller från 24 kl. 06 UTC till 25 kl. 06 UTC
Vind 9 kt från ost
Sikt 10 km eller mer
Spridda moln på en höjd av 1600 ft
Blir
från 24 kl. 06 UTC till 24 kl. 10 UTC
Vind 8 kt från ost
Få moln på en höjd av 1600 ft
Spridda moln på en höjd av 10000 ft

TAF: SVMI 240400Z 2406/2506 09009KT 9999 SCT016 TX33/19Z TN24/09Z BECMG 2406/2410 09008KT FEW016 SCT100

Aktuella väderrapporter och prognoser från 4000 flygplatser (METAR- och TAF-rapporter).

De tillgängliga stationerna syns som gula och röda prickar på kartan.

För musen över prickarna för att se namnen på stationerna.

Klicka sedan för att få väderrapporter och prognoser.

För att ändra kartan: Klicka på de gröna knapparna med ett svart kors på för att zooma in; den gröna knappen med ett streck på för att zooma ut; eller på de gröna pilarna för angränsande kartor.


METAR-TAF: